createdAt,value
2017-09-23T00:00:56.600Z,22.22
2017-09-23T00:02:05.898Z,22.17
2017-09-23T00:03:15.216Z,22.18
2017-09-23T00:04:24.185Z,22.22
2017-09-23T00:05:34.049Z,22.17
2017-09-23T00:06:42.712Z,22.21
2017-09-23T00:07:51.698Z,22.2
2017-09-23T00:09:00.978Z,22.2
2017-09-23T00:10:10.288Z,22.22
2017-09-23T00:11:19.275Z,22.21
2017-09-23T00:12:28.569Z,22.21
2017-09-23T00:13:37.227Z,22.24
2017-09-23T00:14:46.192Z,22.15
2017-09-23T00:15:55.164Z,22.18
2017-09-23T00:17:04.461Z,22.22
2017-09-23T00:18:13.449Z,22.2
2017-09-23T00:19:22.739Z,22.17
2017-09-23T00:20:31.708Z,22.18
2017-09-23T00:21:41.010Z,22.2
2017-09-23T00:22:49.760Z,22.18
2017-09-23T00:23:58.749Z,22.18
2017-09-23T00:25:07.714Z,22.21
2017-09-23T00:26:16.737Z,22.24
2017-09-23T00:27:25.698Z,22.24
2017-09-23T00:28:34.360Z,22.22
2017-09-23T00:29:43.336Z,22.21
2017-09-23T00:30:51.987Z,22.2
2017-09-23T00:32:00.954Z,22.21
2017-09-23T00:33:10.309Z,22.21
2017-09-23T00:34:19.605Z,22.22
2017-09-23T00:35:29.208Z,22.21
2017-09-23T00:36:38.180Z,22.24
2017-09-23T00:37:46.840Z,22.21
2017-09-23T00:38:55.826Z,22.22
2017-09-23T00:40:05.433Z,22.25
2017-09-23T00:41:14.481Z,22.2
2017-09-23T00:42:23.137Z,22.21
2017-09-23T00:43:31.797Z,22.22
2017-09-23T00:44:41.077Z,22.24
2017-09-23T00:45:50.658Z,22.22
2017-09-23T00:46:59.634Z,22.15
2017-09-23T00:48:08.928Z,22.24
2017-09-23T00:49:17.889Z,22.2
2017-09-23T00:50:26.860Z,22.2
2017-09-23T00:51:35.667Z,22.2
2017-09-23T00:52:44.330Z,22.2
2017-09-23T00:53:53.630Z,22.21
2017-09-23T00:55:02.923Z,22.22
2017-09-23T00:56:11.909Z,22.22
2017-09-23T00:57:20.708Z,22.21
2017-09-23T00:58:29.390Z,22.25
2017-09-23T00:59:38.357Z,22.25
2017-09-23T01:00:47.329Z,22.12
2017-09-23T01:01:55.986Z,22.22
2017-09-23T01:03:04.643Z,22.18
2017-09-23T01:04:13.615Z,22.22
2017-09-23T01:05:22.902Z,22.21
2017-09-23T01:06:31.807Z,22.18
2017-09-23T01:07:40.771Z,22.21
2017-09-23T01:08:49.743Z,22.22
2017-09-23T01:09:58.723Z,22.24
2017-09-23T01:11:08.004Z,22.22
2017-09-23T01:12:16.658Z,22.22
2017-09-23T01:13:25.945Z,22.21
2017-09-23T01:14:35.224Z,22.2
2017-09-23T01:15:44.197Z,22.21
2017-09-23T01:16:53.474Z,22.22
2017-09-23T01:18:02.445Z,22.22
2017-09-23T01:19:11.105Z,22.22
2017-09-23T01:20:20.540Z,22.24
2017-09-23T01:21:29.832Z,22.2
2017-09-23T01:22:38.823Z,22.22
2017-09-23T01:23:47.793Z,22.21
2017-09-23T01:24:56.454Z,22.21
2017-09-23T01:26:05.427Z,22.21
2017-09-23T01:27:14.710Z,22.2
2017-09-23T01:28:23.686Z,22.15
2017-09-23T01:29:32.349Z,22.18
2017-09-23T01:30:41.649Z,22.17
2017-09-23T01:31:50.407Z,22.24
2017-09-23T01:32:59.061Z,22.22
2017-09-23T01:34:08.347Z,22.22
2017-09-23T01:35:17.352Z,22.22
2017-09-23T01:36:26.632Z,22.21
2017-09-23T01:37:35.933Z,22.21
2017-09-23T01:38:45.230Z,22.21
2017-09-23T01:39:54.523Z,22.22
2017-09-23T01:41:03.187Z,22.18
2017-09-23T01:42:12.496Z,22.17
2017-09-23T01:43:21.466Z,22.17
2017-09-23T01:44:30.425Z,22.22
2017-09-23T01:45:40.022Z,22.21
2017-09-23T01:46:48.690Z,22.18
2017-09-23T01:47:57.986Z,22.24
2017-09-23T01:49:07.323Z,22.18
2017-09-23T01:50:17.251Z,22.22
2017-09-23T01:51:26.218Z,22.24
2017-09-23T01:52:35.196Z,22.18
2017-09-23T01:53:44.496Z,22.21
2017-09-23T01:54:53.780Z,22.21
2017-09-23T01:56:02.742Z,22.2
2017-09-23T01:57:11.734Z,22.18
2017-09-23T01:58:21.329Z,22.25
2017-09-23T01:59:30.980Z,22.2
2017-09-23T02:00:40.384Z,22.25
2017-09-23T02:01:49.045Z,22.22
2017-09-23T02:02:58.021Z,22.18
2017-09-23T02:04:06.673Z,22.2
2017-09-23T02:05:15.649Z,22.17
2017-09-23T02:06:24.451Z,22.12
2017-09-23T02:07:33.430Z,22.22
2017-09-23T02:08:42.464Z,22.21
2017-09-23T02:09:51.116Z,22.22
2017-09-23T02:11:00.409Z,22.17
2017-09-23T02:12:09.693Z,22.17
2017-09-23T02:13:18.342Z,22.2
2017-09-23T02:14:27.319Z,22.24
2017-09-23T02:15:36.307Z,22.14
2017-09-23T02:16:44.969Z,22.2
2017-09-23T02:17:53.639Z,22.24
2017-09-23T02:19:02.920Z,22.18
2017-09-23T02:20:11.586Z,22.18
2017-09-23T02:21:21.210Z,22.21
2017-09-23T02:22:30.195Z,22.25
2017-09-23T02:23:39.779Z,22.15
2017-09-23T02:24:48.427Z,22.2
2017-09-23T02:25:57.075Z,22.21
2017-09-23T02:27:06.731Z,22.2
2017-09-23T02:28:15.404Z,22.21
2017-09-23T02:29:24.526Z,22.18
2017-09-23T02:30:33.211Z,22.22
2017-09-23T02:31:42.179Z,22.18
2017-09-23T02:32:50.839Z,22.1
2017-09-23T02:34:00.124Z,22.22
2017-09-23T02:35:09.112Z,22.2
2017-09-23T02:36:18.102Z,22.21
2017-09-23T02:37:27.062Z,22.18
2017-09-23T02:38:36.053Z,22.18
2017-09-23T02:39:45.345Z,22.17
2017-09-23T02:40:55.585Z,22.17
2017-09-23T02:42:04.889Z,22.18
2017-09-23T02:43:14.484Z,22.21
2017-09-23T02:44:23.469Z,22.22
2017-09-23T02:45:32.764Z,22.21
2017-09-23T02:46:42.380Z,22.2
2017-09-23T02:47:51.044Z,22.25
2017-09-23T02:49:00.022Z,22.2
2017-09-23T02:50:09.304Z,22.22
2017-09-23T02:51:18.302Z,22.21
2017-09-23T02:52:27.239Z,22.14
2017-09-23T02:53:35.880Z,22.22
2017-09-23T02:54:44.538Z,22.15
2017-09-23T02:55:53.824Z,22.2
2017-09-23T02:57:03.106Z,22.22
2017-09-23T02:58:12.383Z,22.22
2017-09-23T02:59:21.348Z,22.2
2017-09-23T03:00:30.006Z,22.2
2017-09-23T03:01:38.996Z,22.21
2017-09-23T03:02:47.953Z,22.22
2017-09-23T03:03:57.257Z,22.15
2017-09-23T03:05:06.241Z,22.22
2017-09-23T03:06:15.534Z,22.21
2017-09-23T03:07:24.191Z,22.15
2017-09-23T03:08:33.171Z,22.24
2017-09-23T03:09:42.928Z,22.18
2017-09-23T03:10:51.887Z,22.1
2017-09-23T03:12:00.877Z,22.22
2017-09-23T03:13:09.850Z,22.22
2017-09-23T03:14:18.821Z,22.21
2017-09-23T03:15:29.048Z,22.24
2017-09-23T03:16:38.032Z,22.14
2017-09-23T03:17:46.685Z,22.21
2017-09-23T03:18:55.331Z,22.21
2017-09-23T03:20:04.619Z,22.2
2017-09-23T03:21:13.919Z,22.21
2017-09-23T03:22:22.911Z,22.22
2017-09-23T03:23:32.198Z,22.18
2017-09-23T03:24:41.499Z,22.2
2017-09-23T03:25:50.461Z,22.12
2017-09-23T03:26:59.543Z,22.22
2017-09-23T03:28:09.144Z,22.21
2017-09-23T03:29:18.106Z,22.18
2017-09-23T03:30:27.139Z,22.21
2017-09-23T03:31:36.740Z,22.2
2017-09-23T03:32:45.730Z,22.14
2017-09-23T03:33:54.706Z,22.25
2017-09-23T03:35:03.986Z,22.09
2017-09-23T03:36:13.598Z,22.21
2017-09-23T03:37:22.576Z,22.21
2017-09-23T03:38:32.175Z,22.1
2017-09-23T03:39:41.154Z,22.14
2017-09-23T03:40:50.196Z,22.1
2017-09-23T03:41:58.842Z,22.21
2017-09-23T03:43:07.496Z,22.17
2017-09-23T03:44:16.647Z,22.12
2017-09-23T03:45:25.300Z,22.14
2017-09-23T03:46:33.995Z,22.17
2017-09-23T03:47:42.971Z,22.12
2017-09-23T03:48:51.942Z,22.14
2017-09-23T03:50:01.375Z,22.18
2017-09-23T03:51:10.367Z,22.18
2017-09-23T03:52:19.023Z,22.12
2017-09-23T03:53:27.697Z,22.17
2017-09-23T03:54:37.655Z,22.07
2017-09-23T03:55:46.736Z,22.2
2017-09-23T03:56:56.346Z,22.14
2017-09-23T03:58:05.325Z,22.1
2017-09-23T03:59:13.989Z,22.03
2017-09-23T04:00:23.605Z,22.07
2017-09-23T04:01:33.223Z,22.17
2017-09-23T04:02:42.508Z,22.09
2017-09-23T04:03:51.496Z,22.15
2017-09-23T04:05:01.416Z,22.09
2017-09-23T04:06:10.070Z,22.09
2017-09-23T04:07:19.457Z,22.09
2017-09-23T04:08:28.433Z,22.12
2017-09-23T04:09:37.713Z,22.02
2017-09-23T04:10:47.002Z,22.09
2017-09-23T04:11:56.300Z,22.06
2017-09-23T04:13:05.429Z,22.06
2017-09-23T04:14:14.096Z,22.09
2017-09-23T04:15:23.069Z,22.07
2017-09-23T04:16:32.052Z,22.09
2017-09-23T04:17:41.042Z,22.09
2017-09-23T04:18:50.663Z,22.05
2017-09-23T04:19:59.633Z,22.1
2017-09-23T04:21:08.304Z,22.05
2017-09-23T04:22:17.276Z,22.12
2017-09-23T04:23:26.585Z,22.12
2017-09-23T04:24:35.721Z,22.06
2017-09-23T04:25:44.704Z,22.06
2017-09-23T04:26:53.678Z,22.05
2017-09-23T04:28:02.639Z,22.06
2017-09-23T04:29:11.941Z,22.07
2017-09-23T04:30:21.034Z,22.09
2017-09-23T04:31:30.311Z,22.09
2017-09-23T04:32:39.302Z,22.09
2017-09-23T04:33:48.267Z,22.05
2017-09-23T04:34:57.869Z,22.06
2017-09-23T04:36:06.942Z,22.06
2017-09-23T04:37:15.948Z,22.07
2017-09-23T04:38:25.257Z,22.1
2017-09-23T04:39:33.954Z,22.06
2017-09-23T04:40:42.614Z,22.06
2017-09-23T04:41:51.606Z,22.06
2017-09-23T04:43:00.897Z,22.05
2017-09-23T04:44:09.871Z,22.09
2017-09-23T04:45:18.523Z,22.1
2017-09-23T04:46:27.500Z,22.07
2017-09-23T04:47:37.091Z,22.12
2017-09-23T04:48:46.065Z,22.09
2017-09-23T04:49:55.042Z,22.14
2017-09-23T04:51:04.340Z,22.1
2017-09-23T04:52:13.929Z,22.06
2017-09-23T04:53:23.377Z,22.05
2017-09-23T04:54:32.053Z,22.1
2017-09-23T04:55:41.040Z,22.02
2017-09-23T04:56:49.806Z,22.12
2017-09-23T04:57:59.113Z,22.12
2017-09-23T04:59:08.106Z,22.14
2017-09-23T05:00:16.769Z,22.03
2017-09-23T05:01:25.758Z,22.05
2017-09-23T05:02:34.427Z,22.02
2017-09-23T05:03:43.411Z,22.02
2017-09-23T05:04:53.368Z,22.14
2017-09-23T05:06:02.677Z,22.05
2017-09-23T05:07:12.034Z,22.09
2017-09-23T05:08:20.719Z,22.06
2017-09-23T05:09:55.364Z,22
2017-09-23T05:11:05.287Z,22.09
2017-09-23T05:12:14.278Z,22.09
2017-09-23T05:13:23.262Z,22
2017-09-23T05:14:32.244Z,22
2017-09-23T05:15:41.061Z,22.14
2017-09-23T05:16:50.056Z,22.12
2017-09-23T05:17:59.348Z,22.05
2017-09-23T05:19:08.660Z,22.03
2017-09-23T05:20:17.642Z,22.03
2017-09-23T05:21:26.857Z,22.09
2017-09-23T05:22:35.509Z,22.05
2017-09-23T05:23:45.111Z,22.12
2017-09-23T05:24:54.462Z,22.05
2017-09-23T05:26:03.754Z,22.07
2017-09-23T05:27:13.028Z,22.07
2017-09-23T05:28:21.695Z,22.03
2017-09-23T05:29:31.314Z,22.06
2017-09-23T05:30:40.340Z,22.1
2017-09-23T05:31:49.327Z,22.07
2017-09-23T05:32:58.138Z,22.12
2017-09-23T05:34:06.813Z,22.14
2017-09-23T05:35:16.418Z,22.07
2017-09-23T05:36:25.695Z,22.09
2017-09-23T05:37:34.668Z,22.14
2017-09-23T05:38:44.290Z,22.03
2017-09-23T05:39:53.595Z,22.05
2017-09-23T05:41:02.888Z,22.09
2017-09-23T05:42:11.916Z,22.05
2017-09-23T05:43:20.913Z,22.12
2017-09-23T05:44:29.884Z,22.09
2017-09-23T05:45:38.853Z,22.09
2017-09-23T05:46:48.137Z,22.1
2017-09-23T05:47:57.114Z,22.09
2017-09-23T05:49:06.712Z,22.05
2017-09-23T05:50:15.677Z,22.06
2017-09-23T05:51:24.976Z,22.12
2017-09-23T05:52:33.973Z,22.03
2017-09-23T05:53:43.274Z,22.09
2017-09-23T05:54:52.882Z,22.03
2017-09-23T05:56:02.188Z,22.1
2017-09-23T05:57:11.501Z,22.09
2017-09-23T05:58:20.474Z,22.05
2017-09-23T05:59:29.481Z,22.12
2017-09-23T06:00:38.436Z,22.03
2017-09-23T06:01:48.218Z,22.03
2017-09-23T06:02:57.516Z,22.05
2017-09-23T06:04:06.821Z,22.07
2017-09-23T06:05:16.172Z,22.06
2017-09-23T06:06:25.142Z,22.06
2017-09-23T06:07:34.131Z,22.02
2017-09-23T06:08:43.422Z,22.06
2017-09-23T06:09:52.081Z,22.05
2017-09-23T06:11:01.067Z,22.06
2017-09-23T06:12:09.747Z,22.05
2017-09-23T06:13:18.864Z,22.03
2017-09-23T06:14:28.175Z,22.05
2017-09-23T06:15:37.170Z,22.07
2017-09-23T06:16:46.463Z,22.06
2017-09-23T06:17:55.132Z,22.07
2017-09-23T06:19:04.449Z,22.09
2017-09-23T06:20:13.435Z,22.07
2017-09-23T06:21:22.099Z,22.14
2017-09-23T06:22:31.404Z,22.03
2017-09-23T06:23:40.387Z,22.07
2017-09-23T06:24:49.274Z,22.07
2017-09-23T06:25:58.568Z,22.05
2017-09-23T06:27:07.881Z,22.14
2017-09-23T06:28:16.536Z,22.02
2017-09-23T06:29:25.189Z,22.07
2017-09-23T06:30:33.976Z,22.06
2017-09-23T06:31:42.712Z,22.09
2017-09-23T06:32:51.747Z,22.15
2017-09-23T06:34:00.425Z,22.12
2017-09-23T06:35:09.728Z,22.1
2017-09-23T06:36:19.144Z,22.06
2017-09-23T06:37:28.112Z,22.14
2017-09-23T06:38:36.783Z,22.03
2017-09-23T06:39:45.766Z,22.12
2017-09-23T06:40:54.754Z,22.1
2017-09-23T06:42:04.040Z,22.14
2017-09-23T06:43:13.017Z,22.05
2017-09-23T06:44:22.618Z,22.09
2017-09-23T06:45:31.918Z,22.15
2017-09-23T06:46:40.596Z,22.17
2017-09-23T06:47:49.575Z,22
2017-09-23T06:48:58.907Z,22.1
2017-09-23T06:50:07.922Z,22.1
2017-09-23T06:51:17.218Z,22.17
2017-09-23T06:52:25.898Z,22.18
2017-09-23T06:53:35.598Z,22.2
2017-09-23T06:54:45.219Z,22.24
2017-09-23T06:55:54.527Z,22.2
2017-09-23T06:57:03.505Z,22.12
2017-09-23T06:58:12.526Z,22.21
2017-09-23T06:59:21.996Z,22.18
2017-09-23T07:00:30.993Z,22.21
2017-09-23T07:01:39.978Z,22.15
2017-09-23T07:02:48.973Z,22.27
2017-09-23T07:03:57.938Z,22.24
2017-09-23T07:05:06.612Z,22.2
2017-09-23T07:06:15.947Z,22.24
2017-09-23T07:07:24.610Z,22.24
2017-09-23T07:08:34.528Z,22.27
2017-09-23T07:09:43.828Z,22.37
2017-09-23T07:10:52.896Z,22.39
2017-09-23T07:12:01.939Z,22.35
2017-09-23T07:13:11.246Z,22.43
2017-09-23T07:14:20.207Z,22.43
2017-09-23T07:15:29.488Z,22.46
2017-09-23T07:16:38.140Z,22.47
2017-09-23T07:17:47.128Z,22.57
2017-09-23T07:18:55.793Z,22.49
2017-09-23T07:20:04.478Z,22.54
2017-09-23T07:21:13.470Z,22.6
2017-09-23T07:22:22.754Z,22.52
2017-09-23T07:23:31.732Z,22.55
2017-09-23T07:24:40.709Z,22.61
2017-09-23T07:25:49.998Z,22.68
2017-09-23T07:26:58.816Z,22.61
2017-09-23T07:28:07.476Z,22.61
2017-09-23T07:29:16.135Z,22.67
2017-09-23T07:30:24.800Z,22.75
2017-09-23T07:31:34.391Z,22.73
2017-09-23T07:32:44.010Z,22.72
2017-09-23T07:33:53.611Z,22.7
2017-09-23T07:35:02.925Z,22.68
2017-09-23T07:36:11.582Z,22.7
2017-09-23T07:37:20.258Z,22.79
2017-09-23T07:38:30.358Z,22.79
2017-09-23T07:39:39.371Z,22.82
2017-09-23T07:40:48.354Z,22.79
2017-09-23T07:41:57.664Z,22.82
2017-09-23T07:43:06.949Z,22.77
2017-09-23T07:44:16.233Z,22.82
2017-09-23T07:45:24.900Z,22.9
2017-09-23T07:46:33.957Z,22.85
2017-09-23T07:47:42.954Z,22.94
2017-09-23T07:48:52.592Z,22.92
2017-09-23T07:50:01.719Z,22.9
2017-09-23T07:51:11.024Z,22.86
2017-09-23T07:52:20.007Z,22.88
2017-09-23T07:53:29.001Z,22.92
2017-09-23T07:54:38.314Z,22.92
2017-09-23T07:55:47.293Z,22.95
2017-09-23T07:56:56.598Z,22.86
2017-09-23T07:58:05.587Z,22.98
2017-09-23T07:59:15.190Z,22.91
2017-09-23T08:00:24.485Z,22.97
2017-09-23T08:01:33.855Z,23.02
2017-09-23T08:02:42.858Z,23
2017-09-23T08:03:51.853Z,22.97
2017-09-23T08:05:00.910Z,22.94
2017-09-23T08:06:09.582Z,22.9
2017-09-23T08:07:18.670Z,22.92
2017-09-23T08:08:27.696Z,22.94
2017-09-23T08:09:36.400Z,22.92
2017-09-23T08:10:45.713Z,22.92
2017-09-23T08:11:54.696Z,22.9
2017-09-23T08:13:03.997Z,22.88
2017-09-23T08:14:12.654Z,22.9
2017-09-23T08:15:21.992Z,22.88
2017-09-23T08:16:31.007Z,22.9
2017-09-23T08:17:39.674Z,22.91
2017-09-23T08:18:49.505Z,22.9
2017-09-23T08:19:58.146Z,22.9
2017-09-23T08:21:07.496Z,22.85
2017-09-23T08:22:16.463Z,22.91
2017-09-23T08:23:25.427Z,22.86
2017-09-23T08:24:34.191Z,22.9
2017-09-23T08:25:42.851Z,22.97
2017-09-23T08:26:52.224Z,22.9
2017-09-23T08:28:00.867Z,22.91
2017-09-23T08:29:09.524Z,22.91
2017-09-23T08:30:18.352Z,22.92
2017-09-23T08:31:27.334Z,22.97
2017-09-23T08:32:36.677Z,22.91
2017-09-23T08:33:45.643Z,22.92
2017-09-23T08:34:54.930Z,22.98
2017-09-23T08:36:04.215Z,22.98
2017-09-23T08:37:13.519Z,23.01
2017-09-23T08:38:22.806Z,23.05
2017-09-23T08:39:32.412Z,23.04
2017-09-23T08:40:41.696Z,23.07
2017-09-23T08:41:50.687Z,23.02
2017-09-23T08:43:00.038Z,23.12
2017-09-23T08:44:09.337Z,23.16
2017-09-23T08:45:18.001Z,23.17
2017-09-23T08:46:26.679Z,23.15
2017-09-23T08:47:35.960Z,23.17
2017-09-23T08:48:44.935Z,23.19
2017-09-23T08:49:53.902Z,23.19
2017-09-23T08:51:03.199Z,23.17
2017-09-23T08:52:11.856Z,23.22
2017-09-23T08:53:21.448Z,23.22
2017-09-23T08:54:30.105Z,23.28
2017-09-23T08:55:39.746Z,23.25
2017-09-23T08:56:48.893Z,23.27
2017-09-23T08:57:57.593Z,23.28
2017-09-23T08:59:07.546Z,23.36
2017-09-23T09:00:16.213Z,23.4
2017-09-23T09:01:25.176Z,23.36
2017-09-23T09:02:34.139Z,23.36
2017-09-23T09:03:43.447Z,23.33
2017-09-23T09:04:52.507Z,23.38
2017-09-23T09:06:01.527Z,23.35
2017-09-23T09:07:10.832Z,23.36
2017-09-23T09:08:20.104Z,23.39
2017-09-23T09:09:29.379Z,23.25
2017-09-23T09:10:38.370Z,23.23
2017-09-23T09:11:47.670Z,23.15
2017-09-23T09:12:56.659Z,23.05
2017-09-23T09:14:05.692Z,22.92
2017-09-23T09:15:15.102Z,22.82
2017-09-23T09:16:24.166Z,22.72
2017-09-23T09:17:33.605Z,22.49
2017-09-23T09:18:42.873Z,22.3
2017-09-23T09:19:52.198Z,22.15
2017-09-23T09:21:02.183Z,22.18
2017-09-23T09:22:11.727Z,22.2
2017-09-23T09:23:21.019Z,22.02
2017-09-23T09:24:30.041Z,21.9
2017-09-23T09:25:39.024Z,21.77
2017-09-23T09:26:48.631Z,21.53
2017-09-23T09:27:58.123Z,21.44
2017-09-23T09:29:07.112Z,21.37
2017-09-23T09:30:16.139Z,21.29
2017-09-23T09:31:25.141Z,21.27
2017-09-23T09:32:34.747Z,21.17
2017-09-23T09:33:44.007Z,21.17
2017-09-23T09:34:53.297Z,21.04
2017-09-23T09:36:02.577Z,20.99
2017-09-23T09:37:11.854Z,20.99
2017-09-23T09:38:21.177Z,20.95
2017-09-23T09:39:30.693Z,20.89
2017-09-23T09:40:39.352Z,20.87
2017-09-23T09:41:48.339Z,20.85
2017-09-23T09:42:57.635Z,20.74
2017-09-23T09:44:06.603Z,20.73
2017-09-23T09:45:15.876Z,20.64
2017-09-23T09:46:25.178Z,20.54
2017-09-23T09:47:34.157Z,20.54
2017-09-23T09:48:43.136Z,20.48
2017-09-23T09:49:52.437Z,20.42
2017-09-23T09:51:01.423Z,20.39
2017-09-23T09:52:10.701Z,20.42
2017-09-23T09:53:20.005Z,20.33
2017-09-23T09:54:29.289Z,20.28
2017-09-23T09:55:37.964Z,20.32
2017-09-23T09:56:47.086Z,20.31
2017-09-23T09:57:57.013Z,20.28
2017-09-23T09:59:05.692Z,20.24
2017-09-23T10:00:14.344Z,20.18
2017-09-23T10:01:24.282Z,20.06
2017-09-23T10:02:33.414Z,20.13
2017-09-23T10:03:42.703Z,20.13
2017-09-23T10:04:51.988Z,20.21
2017-09-23T10:06:00.628Z,20.13
2017-09-23T10:07:09.283Z,20.11
2017-09-23T10:08:18.557Z,20.1
2017-09-23T10:09:27.855Z,20.14
2017-09-23T10:10:37.157Z,20.13
2017-09-23T10:11:46.133Z,20.17
2017-09-23T10:12:55.098Z,20.13
2017-09-23T10:14:04.378Z,20.13
2017-09-23T10:15:13.025Z,20.16
2017-09-23T10:16:21.683Z,20.08
2017-09-23T10:17:31.028Z,20.18
2017-09-23T10:18:39.713Z,20.08
2017-09-23T10:19:48.379Z,20.1
2017-09-23T10:20:57.351Z,20.06
2017-09-23T10:22:06.949Z,20.1
2017-09-23T10:23:15.950Z,19.98
2017-09-23T10:24:24.643Z,20.06
2017-09-23T10:25:33.627Z,19.98
2017-09-23T10:26:42.920Z,19.98
2017-09-23T10:27:52.509Z,19.96
2017-09-23T10:29:02.109Z,20.02
2017-09-23T10:30:11.082Z,20.03
2017-09-23T10:31:20.200Z,20.02
2017-09-23T10:32:29.169Z,19.98
2017-09-23T10:33:37.823Z,19.99
2017-09-23T10:34:47.477Z,20.03
2017-09-23T10:35:56.166Z,20.08
2017-09-23T10:37:05.288Z,20.01
2017-09-23T10:38:14.600Z,20.02
2017-09-23T10:39:23.589Z,20.01
2017-09-23T10:40:32.863Z,20.06
2017-09-23T10:41:41.875Z,20.13
2017-09-23T10:42:51.474Z,20.13
2017-09-23T10:44:00.455Z,20.1
2017-09-23T10:45:10.388Z,20.13
2017-09-23T10:46:19.687Z,20.2
2017-09-23T10:47:28.671Z,20.16
2017-09-23T10:48:37.317Z,20.13
2017-09-23T10:49:46.281Z,20.16
2017-09-23T10:50:55.556Z,20.21
2017-09-23T10:52:04.528Z,20.21
2017-09-23T10:53:13.505Z,20.26
2017-09-23T10:54:22.625Z,20.39
2017-09-23T10:55:32.229Z,20.31
2017-09-23T10:56:41.550Z,20.41
2017-09-23T10:57:50.815Z,20.52
2017-09-23T10:58:59.807Z,20.52
2017-09-23T11:00:09.131Z,20.5
2017-09-23T11:01:18.135Z,20.51
2017-09-23T11:02:27.120Z,20.48
2017-09-23T11:03:35.777Z,20.47
2017-09-23T11:04:44.445Z,20.55
2017-09-23T11:05:53.726Z,20.5
2017-09-23T11:07:02.687Z,20.5
2017-09-23T11:08:11.653Z,20.55
2017-09-23T11:09:20.349Z,20.58
2017-09-23T11:10:29.406Z,20.67
2017-09-23T11:11:38.378Z,20.69
2017-09-23T11:12:47.360Z,20.64
2017-09-23T11:13:56.680Z,20.7
2017-09-23T11:15:05.344Z,20.62
2017-09-23T11:16:14.619Z,20.62
2017-09-23T11:17:23.736Z,20.66
2017-09-23T11:18:32.711Z,20.66
2017-09-23T11:19:41.673Z,20.61
2017-09-23T11:20:50.334Z,20.59
2017-09-23T11:21:59.297Z,20.64
2017-09-23T11:23:08.119Z,20.58
2017-09-23T11:24:17.088Z,20.58
2017-09-23T11:25:26.365Z,20.58
2017-09-23T11:26:35.651Z,20.5
2017-09-23T11:27:44.621Z,20.41
2017-09-23T11:28:53.568Z,20.54
2017-09-23T11:30:02.861Z,20.57
2017-09-23T11:31:12.464Z,20.55
2017-09-23T11:32:21.758Z,20.55
2017-09-23T11:33:31.056Z,20.62
2017-09-23T11:34:40.653Z,20.57
2017-09-23T11:35:49.635Z,20.59
2017-09-23T11:36:58.278Z,20.54
2017-09-23T11:38:06.968Z,20.55
2017-09-23T11:39:16.260Z,20.61
2017-09-23T11:40:25.251Z,20.54
2017-09-23T11:41:34.533Z,20.61
2017-09-23T11:42:43.193Z,20.51
2017-09-23T11:43:52.157Z,20.51
2017-09-23T11:45:01.510Z,20.5
2017-09-23T11:46:11.570Z,20.58
2017-09-23T11:47:21.492Z,20.54
2017-09-23T11:48:31.115Z,20.58
2017-09-23T11:49:39.764Z,20.51
2017-09-23T11:50:49.078Z,20.62
2017-09-23T11:51:58.537Z,20.61
2017-09-23T11:53:07.847Z,20.61
2017-09-23T11:54:17.153Z,20.61
2017-09-23T11:55:25.832Z,20.61
2017-09-23T11:56:34.807Z,20.62
2017-09-23T11:57:43.967Z,20.64
2017-09-23T11:58:53.252Z,20.62
2017-09-23T12:00:02.543Z,20.72
2017-09-23T12:01:11.200Z,20.7
2017-09-23T12:02:20.830Z,20.7
2017-09-23T12:03:29.951Z,20.64
2017-09-23T12:04:39.235Z,20.64
2017-09-23T12:05:48.521Z,20.67
2017-09-23T12:06:57.538Z,20.66
2017-09-23T12:08:06.519Z,20.7
2017-09-23T12:09:15.811Z,20.76
2017-09-23T12:10:24.548Z,20.69
2017-09-23T12:11:33.529Z,20.77
2017-09-23T12:12:42.202Z,20.85
2017-09-23T12:13:51.836Z,20.84
2017-09-23T12:15:01.606Z,20.76
2017-09-23T12:16:10.904Z,20.77
2017-09-23T12:17:20.201Z,20.84
2017-09-23T12:18:29.171Z,20.87
2017-09-23T12:19:39.098Z,20.87
2017-09-23T12:20:48.252Z,20.91
2017-09-23T12:21:57.533Z,20.84
2017-09-23T12:23:06.833Z,20.88
2017-09-23T12:24:15.476Z,20.82
2017-09-23T12:25:24.776Z,20.88
2017-09-23T12:26:33.888Z,20.95
2017-09-23T12:27:42.853Z,20.89
2017-09-23T12:28:52.150Z,20.92
2017-09-23T12:30:00.811Z,20.98
2017-09-23T12:31:09.475Z,20.92
2017-09-23T12:32:18.759Z,20.82
2017-09-23T12:33:27.724Z,20.92
2017-09-23T12:34:36.416Z,20.88
2017-09-23T12:35:45.387Z,20.82
2017-09-23T12:36:54.983Z,20.89
2017-09-23T12:38:04.325Z,20.84
2017-09-23T12:39:13.076Z,20.91
2017-09-23T12:40:23.696Z,20.87
2017-09-23T12:41:32.379Z,20.94
2017-09-23T12:42:41.060Z,20.92
2017-09-23T12:43:50.046Z,20.94
2017-09-23T12:44:59.035Z,20.94
2017-09-23T12:46:07.703Z,20.92
2017-09-23T12:47:17.310Z,20.94
2017-09-23T12:48:26.294Z,20.99
2017-09-23T12:49:35.485Z,20.94
2017-09-23T12:50:44.524Z,20.99
2017-09-23T12:51:54.421Z,20.99
2017-09-23T12:53:03.088Z,20.95
2017-09-23T12:54:11.759Z,20.95
2017-09-23T12:55:21.761Z,20.99
2017-09-23T12:56:31.055Z,21.01
2017-09-23T12:57:40.058Z,20.98
2017-09-23T12:58:49.975Z,20.97
2017-09-23T12:59:58.974Z,20.92
2017-09-23T13:01:08.269Z,20.97
2017-09-23T13:02:17.578Z,20.95
2017-09-23T13:03:26.557Z,20.88
2017-09-23T13:04:35.552Z,20.88
2017-09-23T13:05:44.240Z,20.91
2017-09-23T13:06:53.040Z,20.88
2017-09-23T13:08:02.641Z,20.88
2017-09-23T13:09:11.311Z,20.88
2017-09-23T13:10:20.596Z,20.87
2017-09-23T13:11:29.271Z,20.77
2017-09-23T13:12:38.565Z,20.76
2017-09-23T13:13:48.242Z,20.79
2017-09-23T13:14:56.980Z,20.85
2017-09-23T13:16:06.376Z,20.77
2017-09-23T13:17:15.079Z,20.84
2017-09-23T13:18:24.198Z,20.85
2017-09-23T13:19:33.181Z,20.79
2017-09-23T13:20:42.791Z,20.77
2017-09-23T13:21:51.460Z,20.79
2017-09-23T13:23:00.427Z,20.84
2017-09-23T13:24:09.252Z,20.77
2017-09-23T13:25:18.568Z,20.77
2017-09-23T13:26:27.584Z,20.88
2017-09-23T13:27:36.574Z,20.84
2017-09-23T13:28:45.891Z,20.84
2017-09-23T13:29:55.325Z,20.92
2017-09-23T13:31:04.329Z,20.87
2017-09-23T13:32:13.298Z,20.94
2017-09-23T13:33:21.950Z,20.95
2017-09-23T13:34:30.914Z,20.97
2017-09-23T13:35:39.573Z,20.99
2017-09-23T13:36:48.232Z,21.01
2017-09-23T13:37:57.537Z,21.07
2017-09-23T13:39:06.190Z,21.06
2017-09-23T13:40:15.465Z,21.04
2017-09-23T13:41:24.807Z,21.06
2017-09-23T13:42:33.453Z,21.13
2017-09-23T13:43:42.437Z,21.06
2017-09-23T13:44:51.427Z,21.12
2017-09-23T13:46:00.385Z,21.13
2017-09-23T13:47:09.351Z,21.14
2017-09-23T13:48:18.632Z,21.13
2017-09-23T13:49:27.705Z,21.14
2017-09-23T13:50:36.674Z,21.14
2017-09-23T13:51:45.654Z,21.17
2017-09-23T13:52:54.614Z,21.16
2017-09-23T13:54:03.584Z,21.1
2017-09-23T13:55:12.902Z,21.16
2017-09-23T13:56:21.561Z,21.24
2017-09-23T13:57:30.854Z,21.22
2017-09-23T13:58:39.657Z,21.27
2017-09-23T13:59:48.954Z,21.24
2017-09-23T14:00:58.266Z,21.21
2017-09-23T14:02:07.244Z,21.24
2017-09-23T14:03:16.265Z,21.24
2017-09-23T14:04:25.221Z,21.31
2017-09-23T14:05:34.504Z,21.25
2017-09-23T14:06:44.101Z,21.32
2017-09-23T14:07:53.400Z,21.34
2017-09-23T14:09:02.688Z,21.34
2017-09-23T14:10:11.755Z,21.35
2017-09-23T14:11:20.412Z,21.4
2017-09-23T14:12:29.066Z,21.38
2017-09-23T14:13:37.724Z,21.42
2017-09-23T14:14:46.690Z,21.37
2017-09-23T14:15:56.383Z,21.37
2017-09-23T14:17:05.360Z,21.32
2017-09-23T14:18:14.330Z,21.31
2017-09-23T14:19:23.311Z,21.35
2017-09-23T14:20:32.293Z,21.32
2017-09-23T14:21:41.336Z,21.42
2017-09-23T14:22:49.985Z,21.29
2017-09-23T14:23:59.277Z,21.37
2017-09-23T14:25:08.271Z,21.34
2017-09-23T14:26:18.227Z,21.32
2017-09-23T14:27:27.512Z,21.34
2017-09-23T14:28:36.159Z,21.32
2017-09-23T14:29:44.829Z,21.35
2017-09-23T14:30:53.815Z,21.35
2017-09-23T14:32:02.780Z,21.34
2017-09-23T14:33:11.583Z,21.34
2017-09-23T14:34:20.224Z,21.35
2017-09-23T14:35:29.510Z,21.31
2017-09-23T14:36:38.492Z,21.42
2017-09-23T14:37:48.098Z,21.38
2017-09-23T14:38:57.237Z,21.29
2017-09-23T14:40:06.518Z,21.31
2017-09-23T14:41:15.498Z,21.35
2017-09-23T14:42:25.405Z,21.28
2017-09-23T14:43:35.628Z,21.35
2017-09-23T14:44:44.432Z,21.35
2017-09-23T14:45:53.727Z,21.27
2017-09-23T14:47:02.476Z,21.34
2017-09-23T14:48:11.462Z,21.37
2017-09-23T14:49:20.790Z,21.35
2017-09-23T14:50:30.534Z,21.38
2017-09-23T14:51:39.508Z,21.35
2017-09-23T14:52:48.795Z,21.27
2017-09-23T14:53:58.096Z,21.29